createdAt,value
2017-11-11T00:01:39.503Z,67.50
2017-11-11T00:04:07.178Z,67.50
2017-11-11T00:06:34.703Z,67.50
2017-11-11T00:09:02.186Z,67.20
2017-11-11T00:11:29.680Z,67.50
2017-11-11T00:13:57.225Z,67.80
2017-11-11T00:16:25.474Z,67.50
2017-11-11T00:18:52.987Z,67.40
2017-11-11T00:21:20.496Z,67.50
2017-11-11T00:23:47.973Z,67.50
2017-11-11T00:26:15.502Z,67.70
2017-11-11T00:28:42.998Z,67.50
2017-11-11T00:31:10.488Z,67.40
2017-11-11T00:33:38.005Z,67.30
2017-11-11T00:36:05.478Z,67.60
2017-11-11T00:38:33.800Z,67.30
2017-11-11T00:41:01.322Z,67.30
2017-11-11T00:43:29.584Z,67.50
2017-11-11T00:45:57.118Z,67.50
2017-11-11T00:48:24.673Z,68.00
2017-11-11T00:50:52.170Z,67.80
2017-11-11T00:53:19.659Z,67.90
2017-11-11T00:55:47.149Z,67.30
2017-11-11T00:58:14.688Z,67.30
2017-11-11T01:00:42.166Z,67.10
2017-11-11T01:03:09.883Z,66.90
2017-11-11T01:05:37.373Z,67.20
2017-11-11T01:08:04.874Z,67.20
2017-11-11T01:10:33.145Z,67.20
2017-11-11T01:13:01.446Z,67.10
2017-11-11T01:15:29.701Z,67.50
2017-11-11T01:17:57.963Z,67.30
2017-11-11T01:20:25.438Z,67.30
2017-11-11T01:22:53.918Z,67.20
2017-11-11T01:25:22.192Z,67.20
2017-11-11T01:27:50.469Z,67.20
2017-11-11T01:30:18.000Z,67.20
2017-11-11T01:32:45.603Z,67.40
2017-11-11T01:35:13.946Z,67.20
2017-11-11T01:37:41.526Z,67.20
2017-11-11T01:40:09.031Z,66.80
2017-11-11T01:42:36.646Z,67.30
2017-11-11T01:45:04.282Z,67.00
2017-11-11T01:47:31.901Z,66.50
2017-11-11T01:49:59.416Z,66.50
2017-11-11T01:52:26.970Z,66.30
2017-11-11T01:54:54.581Z,66.50
2017-11-11T01:57:22.082Z,66.20
2017-11-11T01:59:49.569Z,66.20
2017-11-11T02:02:17.164Z,66.40
2017-11-11T02:04:44.734Z,66.50
2017-11-11T02:07:12.398Z,67.30
2017-11-11T02:09:41.598Z,67.60
2017-11-11T02:12:09.141Z,67.50
2017-11-11T02:14:37.290Z,68.00
2017-11-11T02:17:04.783Z,68.10
2017-11-11T02:19:32.266Z,68.20
2017-11-11T02:21:59.746Z,67.20
2017-11-11T02:24:27.243Z,67.30
2017-11-11T02:26:56.088Z,67.20
2017-11-11T02:29:23.672Z,67.30
2017-11-11T02:31:51.959Z,67.40
2017-11-11T02:34:19.465Z,67.40
2017-11-11T02:36:47.003Z,67.50
2017-11-11T02:39:14.549Z,67.70
2017-11-11T02:41:42.130Z,67.10
2017-11-11T02:44:09.626Z,67.20
2017-11-11T02:46:37.242Z,67.50
2017-11-11T02:49:04.965Z,67.60
2017-11-11T02:51:32.600Z,67.30
2017-11-11T02:54:00.105Z,67.00
2017-11-11T02:56:27.967Z,67.00
2017-11-11T02:58:55.496Z,67.10
2017-11-11T03:01:23.052Z,66.80
2017-11-11T03:03:50.669Z,66.40
2017-11-11T03:06:18.221Z,66.50
2017-11-11T03:08:45.889Z,66.70
2017-11-11T03:11:13.444Z,66.90
2017-11-11T03:13:41.021Z,66.70
2017-11-11T03:16:08.571Z,66.60
2017-11-11T03:18:36.220Z,66.20
2017-11-11T03:21:04.543Z,67.10
2017-11-11T03:23:32.014Z,67.10
2017-11-11T03:25:59.668Z,66.60
2017-11-11T03:28:27.152Z,66.50
2017-11-11T03:30:54.849Z,66.80
2017-11-11T03:33:22.399Z,66.50
2017-11-11T03:35:49.939Z,66.00
2017-11-11T03:38:17.717Z,66.10
2017-11-11T03:40:45.222Z,66.20
2017-11-11T03:43:12.734Z,66.30
2017-11-11T03:45:40.215Z,66.10
2017-11-11T03:48:07.732Z,66.30
2017-11-11T03:50:35.357Z,66.50
2017-11-11T03:53:02.847Z,66.60
2017-11-11T03:55:30.516Z,66.50
2017-11-11T03:57:57.997Z,66.70
2017-11-11T04:00:26.412Z,66.40
2017-11-11T04:02:53.905Z,66.50
2017-11-11T04:05:21.509Z,66.50
2017-11-11T04:07:49.045Z,66.90
2017-11-11T04:10:17.421Z,66.50
2017-11-11T04:12:44.904Z,66.50
2017-11-11T04:15:12.696Z,66.70
2017-11-11T04:17:40.250Z,66.50
2017-11-11T04:20:07.773Z,66.50
2017-11-11T04:22:35.257Z,66.50
2017-11-11T04:25:02.744Z,66.60
2017-11-11T04:27:30.240Z,66.50
2017-11-11T04:29:57.776Z,66.70
2017-11-11T04:32:25.396Z,66.20
2017-11-11T04:34:53.722Z,66.30
2017-11-11T04:37:21.219Z,66.20
2017-11-11T04:39:48.724Z,66.40
2017-11-11T04:42:16.435Z,66.30
2017-11-11T04:44:43.925Z,66.20
2017-11-11T04:47:11.414Z,66.30
2017-11-11T04:49:38.920Z,66.50
2017-11-11T04:52:06.504Z,66.30
2017-11-11T04:54:34.026Z,66.20
2017-11-11T04:57:01.524Z,66.40
2017-11-11T04:59:29.001Z,65.80
2017-11-11T05:01:57.473Z,66.10
2017-11-11T05:04:25.116Z,66.10
2017-11-11T05:06:52.756Z,66.00
2017-11-11T05:09:20.416Z,66.00
2017-11-11T05:11:48.682Z,66.30
2017-11-11T05:14:16.164Z,66.30
2017-11-11T05:16:43.696Z,65.90
2017-11-11T05:19:11.254Z,66.20
2017-11-11T05:21:39.635Z,65.80
2017-11-11T05:24:07.161Z,65.80
2017-11-11T05:26:34.656Z,66.00
2017-11-11T05:29:02.176Z,66.20
2017-11-11T05:31:30.185Z,66.90
2017-11-11T05:33:58.434Z,68.00
2017-11-11T05:36:25.921Z,68.00
2017-11-11T05:38:54.187Z,68.90
2017-11-11T05:41:21.705Z,68.80
2017-11-11T05:43:49.246Z,69.70
2017-11-11T05:46:16.826Z,70.20
2017-11-11T05:48:44.555Z,70.80
2017-11-11T05:51:12.201Z,70.60
2017-11-11T05:53:39.727Z,70.30
2017-11-11T05:56:07.265Z,70.20
2017-11-11T05:58:34.827Z,70.00
2017-11-11T06:01:03.255Z,70.20
2017-11-11T06:03:31.033Z,70.20
2017-11-11T06:05:59.310Z,69.80
2017-11-11T06:08:27.586Z,69.50
2017-11-11T06:10:55.850Z,69.50
2017-11-11T06:13:24.126Z,69.50
2017-11-11T06:15:52.508Z,69.40
2017-11-11T06:18:20.905Z,69.50
2017-11-11T06:20:48.549Z,69.30
2017-11-11T06:23:16.105Z,69.00
2017-11-11T06:25:44.378Z,69.30
2017-11-11T06:28:12.015Z,69.10
2017-11-11T06:30:40.357Z,69.30
2017-11-11T06:33:08.030Z,69.20
2017-11-11T06:35:35.532Z,70.00
2017-11-11T06:38:03.009Z,70.10
2017-11-11T06:40:30.481Z,70.60
2017-11-11T06:42:58.014Z,71.30
2017-11-11T06:45:26.292Z,72.50
2017-11-11T06:47:54.719Z,73.00
2017-11-11T06:50:22.338Z,72.70
2017-11-11T06:52:49.838Z,73.00
2017-11-11T06:55:17.361Z,73.30
2017-11-11T06:57:44.845Z,73.60
2017-11-11T07:00:12.473Z,73.70
2017-11-11T07:02:40.080Z,74.00
2017-11-11T07:05:07.569Z,74.10
2017-11-11T07:07:35.122Z,73.70
2017-11-11T07:10:03.240Z,73.90
2017-11-11T07:12:30.822Z,74.10
2017-11-11T07:14:58.326Z,73.70
2017-11-11T07:17:25.887Z,73.80
2017-11-11T07:19:53.417Z,74.00
2017-11-11T07:22:20.905Z,73.50
2017-11-11T07:24:49.150Z,73.30
2017-11-11T07:27:16.790Z,73.10
2017-11-11T07:29:44.270Z,73.00
2017-11-11T07:32:11.866Z,72.90
2017-11-11T07:34:39.373Z,73.30
2017-11-11T07:37:06.919Z,72.70
2017-11-11T07:39:35.181Z,72.00
2017-11-11T07:42:03.453Z,71.90
2017-11-11T07:44:30.987Z,71.70
2017-11-11T07:46:58.455Z,72.10
2017-11-11T07:49:25.958Z,72.20
2017-11-11T07:51:53.456Z,72.30
2017-11-11T07:54:20.928Z,72.00
2017-11-11T07:56:48.433Z,71.80
2017-11-11T07:59:15.917Z,71.50
2017-11-11T08:01:43.566Z,71.40
2017-11-11T08:04:11.097Z,71.20
2017-11-11T08:06:38.593Z,70.80
2017-11-11T08:09:06.110Z,71.10
2017-11-11T08:11:33.611Z,70.80
2017-11-11T08:14:01.099Z,70.60
2017-11-11T08:16:28.587Z,69.90
2017-11-11T08:18:56.637Z,69.90
2017-11-11T08:21:24.366Z,69.90
2017-11-11T08:23:52.017Z,69.70
2017-11-11T08:26:19.517Z,69.40
2017-11-11T08:28:47.036Z,69.10
2017-11-11T08:31:14.520Z,68.90
2017-11-11T08:33:42.055Z,68.90
2017-11-11T08:36:09.568Z,69.40
2017-11-11T08:38:37.148Z,68.80
2017-11-11T08:41:04.685Z,68.80
2017-11-11T08:43:32.193Z,69.30
2017-11-11T08:45:59.661Z,68.90
2017-11-11T08:48:27.160Z,69.20
2017-11-11T08:50:54.646Z,69.80
2017-11-11T08:53:22.921Z,70.40
2017-11-11T08:55:50.413Z,70.40
2017-11-11T08:58:18.064Z,69.60
2017-11-11T09:00:45.565Z,69.60
2017-11-11T09:03:13.083Z,70.20
2017-11-11T09:05:40.925Z,71.70
2017-11-11T09:08:08.484Z,71.50
2017-11-11T09:10:36.771Z,72.90
2017-11-11T09:13:04.293Z,72.90
2017-11-11T09:15:31.845Z,73.10
2017-11-11T09:17:59.562Z,72.10
2017-11-11T09:20:27.061Z,72.20
2017-11-11T09:22:54.547Z,71.80
2017-11-11T09:25:22.263Z,73.10
2017-11-11T09:27:49.798Z,71.00
2017-11-11T09:30:17.277Z,71.10
2017-11-11T09:32:44.761Z,71.10
2017-11-11T09:35:12.245Z,68.80
2017-11-11T09:37:40.488Z,69.00
2017-11-11T09:40:07.978Z,68.90
2017-11-11T09:42:35.538Z,68.50
2017-11-11T09:45:03.035Z,68.40
2017-11-11T09:47:30.529Z,67.90
2017-11-11T09:49:59.010Z,68.10
2017-11-11T09:52:26.686Z,68.10
2017-11-11T09:54:54.997Z,68.30
2017-11-11T09:57:23.395Z,66.80
2017-11-11T09:59:50.889Z,66.80
2017-11-11T10:02:18.414Z,66.80
2017-11-11T10:04:45.933Z,66.00
2017-11-11T10:07:14.126Z,67.60
2017-11-11T10:09:41.655Z,67.10
2017-11-11T10:12:09.142Z,67.10
2017-11-11T10:14:36.802Z,66.50
2017-11-11T10:17:04.306Z,66.40
2017-11-11T10:19:34.512Z,66.00
2017-11-11T10:22:01.995Z,64.90
2017-11-11T10:24:29.724Z,64.80
2017-11-11T10:26:57.249Z,64.60
2017-11-11T10:29:25.649Z,64.20
2017-11-11T10:31:53.609Z,64.10
2017-11-11T10:34:21.135Z,63.10
2017-11-11T10:36:48.681Z,63.50
2017-11-11T10:39:16.145Z,63.90
2017-11-11T10:41:43.645Z,64.00
2017-11-11T10:44:11.181Z,64.90
2017-11-11T10:46:38.713Z,65.40
2017-11-11T10:49:06.251Z,65.40
2017-11-11T10:51:33.750Z,66.10
2017-11-11T10:54:01.276Z,66.30
2017-11-11T10:56:28.795Z,67.20
2017-11-11T10:58:57.058Z,69.60
2017-11-11T11:01:25.336Z,69.90
2017-11-11T11:03:52.970Z,69.90
2017-11-11T11:06:20.480Z,69.70
2017-11-11T11:08:48.078Z,69.20
2017-11-11T11:11:16.465Z,68.70
2017-11-11T11:13:44.578Z,68.50
2017-11-11T11:16:12.043Z,68.90
2017-11-11T11:18:40.299Z,69.30
2017-11-11T11:21:08.350Z,69.30
2017-11-11T11:23:35.866Z,69.10
2017-11-11T11:26:03.448Z,68.30
2017-11-11T11:28:30.933Z,68.80
2017-11-11T11:30:58.455Z,68.80
2017-11-11T11:33:25.950Z,69.80
2017-11-11T11:35:53.434Z,71.50
2017-11-11T11:38:20.948Z,70.50
2017-11-11T11:40:48.485Z,71.10
2017-11-11T11:43:16.288Z,71.10
2017-11-11T11:45:43.797Z,71.20
2017-11-11T11:48:12.061Z,71.00
2017-11-11T11:50:41.218Z,70.90
2017-11-11T11:53:08.718Z,70.90
2017-11-11T11:55:36.255Z,70.60
2017-11-11T11:58:04.522Z,70.80
2017-11-11T12:00:32.019Z,70.80
2017-11-11T12:03:00.274Z,68.90
2017-11-11T12:05:28.187Z,68.90
2017-11-11T12:07:56.161Z,68.30
2017-11-11T12:10:23.804Z,68.20
2017-11-11T12:12:51.320Z,68.00
2017-11-11T12:15:19.613Z,67.80
2017-11-11T12:17:47.133Z,67.60
2017-11-11T12:20:14.808Z,66.80
2017-11-11T12:22:42.336Z,66.60
2017-11-11T12:25:09.840Z,66.20
2017-11-11T12:27:37.321Z,66.60
2017-11-11T12:30:04.822Z,64.80
2017-11-11T12:32:35.305Z,64.60
2017-11-11T12:35:03.633Z,64.50
2017-11-11T12:37:31.189Z,64.40
2017-11-11T12:39:59.590Z,64.50
2017-11-11T12:42:27.235Z,64.70
2017-11-11T12:44:54.712Z,64.30
2017-11-11T12:47:22.231Z,63.80
2017-11-11T12:49:50.145Z,63.50
2017-11-11T12:52:17.744Z,64.20
2017-11-11T12:54:46.022Z,65.40
2017-11-11T12:57:13.571Z,65.40
2017-11-11T12:59:41.041Z,66.70
2017-11-11T13:02:08.554Z,66.00
2017-11-11T13:04:36.186Z,65.00
2017-11-11T13:07:03.732Z,64.50
2017-11-11T13:09:31.268Z,65.00
2017-11-11T13:11:58.771Z,64.70
2017-11-11T13:14:26.287Z,64.90
2017-11-11T13:16:54.552Z,64.20
2017-11-11T13:19:22.531Z,64.20
2017-11-11T13:21:50.090Z,64.00
2017-11-11T13:24:18.515Z,64.50
2017-11-11T13:26:45.998Z,64.40
2017-11-11T13:29:13.483Z,64.50
2017-11-11T13:31:41.046Z,64.90
2017-11-11T13:34:08.947Z,64.80
2017-11-11T13:36:36.614Z,64.70
2017-11-11T13:39:04.184Z,64.00
2017-11-11T13:41:31.916Z,64.00
2017-11-11T13:43:59.469Z,64.70
2017-11-11T13:46:27.150Z,65.10
2017-11-11T13:48:54.676Z,65.10
2017-11-11T13:51:22.187Z,65.40
2017-11-11T13:53:49.702Z,66.50
2017-11-11T13:56:17.200Z,67.20
2017-11-11T13:58:44.711Z,67.10
2017-11-11T14:01:12.958Z,67.10
2017-11-11T14:03:40.628Z,67.00
2017-11-11T14:06:08.170Z,67.40
2017-11-11T14:08:35.897Z,67.80
2017-11-11T14:11:03.381Z,68.30
2017-11-11T14:13:30.893Z,68.30
2017-11-11T14:15:59.157Z,68.30
2017-11-11T14:18:26.785Z,68.30
2017-11-11T14:20:54.313Z,68.40
2017-11-11T14:23:22.583Z,67.80
2017-11-11T14:25:50.887Z,67.80
2017-11-11T14:28:18.550Z,67.70
2017-11-11T14:30:46.144Z,68.30
2017-11-11T14:33:13.878Z,68.20
2017-11-11T14:35:42.358Z,68.90
2017-11-11T14:38:09.885Z,68.80
2017-11-11T14:40:37.386Z,68.70
2017-11-11T14:43:04.895Z,68.30
2017-11-11T14:45:33.179Z,69.20
2017-11-11T14:48:01.443Z,69.10
2017-11-11T14:50:28.954Z,69.10
2017-11-11T14:52:56.487Z,69.00
2017-11-11T14:55:24.034Z,68.80
2017-11-11T14:57:52.586Z,69.80
2017-11-11T15:00:20.121Z,69.10
2017-11-11T15:02:47.715Z,69.60
2017-11-11T15:05:15.212Z,69.50
2017-11-11T15:07:42.735Z,69.60
2017-11-11T15:10:10.370Z,69.80
2017-11-11T15:12:38.005Z,70.10
2017-11-11T15:15:05.491Z,70.20
2017-11-11T15:17:33.007Z,70.20
2017-11-11T15:20:00.519Z,70.70
2017-11-11T15:22:28.256Z,71.20
2017-11-11T15:24:55.790Z,71.60
2017-11-11T15:27:23.331Z,71.50
2017-11-11T15:29:51.771Z,72.00
2017-11-11T15:32:19.269Z,71.90
2017-11-11T15:34:46.989Z,71.90
2017-11-11T15:37:14.608Z,71.50
2017-11-11T15:39:43.001Z,72.10
2017-11-11T15:42:10.553Z,72.10
2017-11-11T15:44:38.090Z,72.00
2017-11-11T15:47:05.581Z,71.80
2017-11-11T15:49:33.291Z,72.00
2017-11-11T15:52:00.803Z,71.80
2017-11-11T15:54:28.400Z,71.70
2017-11-11T15:56:55.911Z,71.40
2017-11-11T15:59:24.378Z,71.80
2017-11-11T16:01:52.689Z,70.60
2017-11-11T16:04:20.297Z,70.60
2017-11-11T16:06:47.908Z,70.90
2017-11-11T16:09:15.450Z,71.00
2017-11-11T16:11:43.337Z,71.30
2017-11-11T16:14:10.849Z,70.90
2017-11-11T16:16:38.336Z,71.20
2017-11-11T16:19:06.637Z,72.20
2017-11-11T16:21:34.141Z,72.10
2017-11-11T16:24:01.674Z,72.10
2017-11-11T16:26:29.171Z,72.40
2017-11-11T16:28:57.592Z,72.60
2017-11-11T16:31:25.217Z,72.60
2017-11-11T16:33:53.494Z,72.60
2017-11-11T16:36:22.300Z,72.30
2017-11-11T16:38:50.236Z,72.20
2017-11-11T16:41:17.815Z,72.50
2017-11-11T16:43:46.134Z,72.80
2017-11-11T16:46:13.670Z,72.70
2017-11-11T16:48:41.243Z,73.00
2017-11-11T17:09:14.515Z,74.10
2017-11-11T17:11:42.020Z,74.40
2017-11-11T17:14:09.937Z,74.30
2017-11-11T17:16:37.430Z,74.50
2017-11-11T17:19:05.141Z,74.70
2017-11-11T17:21:32.641Z,74.20
2017-11-11T17:24:00.163Z,74.50
2017-11-11T17:26:27.670Z,74.10
2017-11-11T17:28:55.927Z,73.60
2017-11-11T17:31:23.419Z,74.00
2017-11-11T17:33:50.914Z,73.60
2017-11-11T17:36:18.470Z,73.80
2017-11-11T17:38:46.008Z,73.60
2017-11-11T17:41:13.494Z,73.40
2017-11-11T17:43:41.000Z,73.80
2017-11-11T17:46:09.274Z,74.30
2017-11-11T17:48:37.555Z,74.10
2017-11-11T17:51:05.847Z,75.10
2017-11-11T17:53:33.379Z,74.40
2017-11-11T17:56:00.968Z,74.40
2017-11-11T17:58:28.475Z,74.30
2017-11-11T18:00:55.968Z,75.00
2017-11-11T18:03:24.235Z,74.80
2017-11-11T18:05:52.826Z,74.60
2017-11-11T18:08:21.121Z,74.90
2017-11-11T18:10:48.620Z,74.90
2017-11-11T18:13:16.109Z,74.90
2017-11-11T18:15:43.599Z,74.40
2017-11-11T18:18:11.103Z,74.90
2017-11-11T18:20:38.619Z,74.60
2017-11-11T18:23:06.144Z,74.50
2017-11-11T18:25:33.840Z,74.60
2017-11-11T18:28:01.361Z,75.10
2017-11-11T18:30:29.637Z,74.80
2017-11-11T18:32:57.903Z,75.30
2017-11-11T18:35:25.388Z,75.30
2017-11-11T18:37:53.656Z,74.90
2017-11-11T18:40:21.473Z,74.90
2017-11-11T18:42:49.103Z,75.00
2017-11-11T18:45:16.785Z,74.40
2017-11-11T18:47:44.418Z,74.30
2017-11-11T18:50:11.918Z,74.50
2017-11-11T18:52:39.549Z,74.50
2017-11-11T18:55:07.121Z,74.70
2017-11-11T18:57:34.628Z,74.60
2017-11-11T19:00:02.151Z,74.60
2017-11-11T19:02:29.646Z,74.60
2017-11-11T19:04:57.128Z,74.30
2017-11-11T19:07:24.632Z,74.30
2017-11-11T19:09:52.149Z,74.80
2017-11-11T19:12:19.686Z,74.50
2017-11-11T19:14:47.187Z,75.10
2017-11-11T19:17:14.661Z,75.40
2017-11-11T19:19:42.601Z,75.00
2017-11-11T19:22:10.167Z,75.10
2017-11-11T19:24:37.651Z,75.10
2017-11-11T19:27:05.161Z,74.60
2017-11-11T19:29:32.625Z,74.20
2017-11-11T19:32:00.300Z,74.40
2017-11-11T19:34:27.825Z,75.20
2017-11-11T19:36:55.326Z,75.10
2017-11-11T19:39:23.578Z,75.10
2017-11-11T19:41:51.863Z,74.00
2017-11-11T19:44:20.130Z,74.10
2017-11-11T19:46:47.736Z,74.00
2017-11-11T19:49:15.216Z,73.40
2017-11-11T19:51:42.690Z,73.60
2017-11-11T19:54:10.208Z,74.20
2017-11-11T19:56:37.699Z,73.50
2017-11-11T19:59:05.187Z,74.10
2017-11-11T20:01:33.585Z,74.10
2017-11-11T20:04:01.076Z,74.10
2017-11-11T20:06:28.587Z,74.10
2017-11-11T20:08:56.854Z,73.50
2017-11-11T20:11:25.852Z,73.30
2017-11-11T20:13:53.337Z,73.20
2017-11-11T20:16:20.828Z,72.60
2017-11-11T20:18:48.332Z,72.20
2017-11-11T20:21:15.834Z,71.80
2017-11-11T20:23:43.369Z,71.80
2017-11-11T20:26:11.629Z,71.00
2017-11-11T20:28:40.044Z,71.10
2017-11-11T20:31:07.563Z,71.10
2017-11-11T20:33:35.841Z,71.90
2017-11-11T20:36:03.313Z,71.90
2017-11-11T20:38:30.821Z,71.60
2017-11-11T20:40:58.315Z,71.60
2017-11-11T20:43:25.808Z,72.10
2017-11-11T20:45:53.309Z,72.50
2017-11-11T20:48:20.818Z,72.40
2017-11-11T20:50:48.318Z,72.80
2017-11-11T20:53:15.825Z,73.10
2017-11-11T20:55:43.314Z,72.90
2017-11-11T20:58:10.838Z,73.00
2017-11-11T21:00:39.102Z,73.00
2017-11-11T21:03:06.622Z,72.90
2017-11-11T21:05:34.113Z,72.50
2017-11-11T21:08:02.393Z,72.60
2017-11-11T21:10:29.909Z,72.60
2017-11-11T21:12:57.366Z,72.90
2017-11-11T21:15:25.138Z,72.80
2017-11-11T21:17:52.631Z,72.40
2017-11-11T21:20:20.910Z,72.50
2017-11-11T21:22:48.511Z,72.70
2017-11-11T21:25:16.032Z,73.30
2017-11-11T21:27:44.292Z,74.10
2017-11-11T21:30:11.795Z,74.10
2017-11-11T21:32:39.276Z,74.40
2017-11-11T21:35:06.920Z,74.70
2017-11-11T21:37:34.468Z,74.70
2017-11-11T21:40:01.960Z,75.00
2017-11-11T21:42:29.507Z,75.20
2017-11-11T21:44:56.986Z,75.50
2017-11-11T21:47:24.510Z,75.60
2017-11-11T21:49:52.011Z,75.50
2017-11-11T21:52:20.397Z,75.70
2017-11-11T21:54:47.868Z,75.70
2017-11-11T21:57:15.440Z,76.00
2017-11-11T21:59:42.966Z,76.30
2017-11-11T22:02:10.695Z,76.60
2017-11-11T22:04:38.209Z,76.50
2017-11-11T22:07:06.507Z,76.20
2017-11-11T22:09:34.006Z,76.20
2017-11-11T22:12:01.571Z,76.20
2017-11-11T22:14:29.069Z,76.40
2017-11-11T22:16:56.773Z,75.90
2017-11-11T22:19:24.278Z,76.20
2017-11-11T22:21:51.789Z,75.60
2017-11-11T22:24:19.378Z,75.50
2017-11-11T22:26:46.861Z,75.40
2017-11-11T22:29:14.362Z,75.30
2017-11-11T22:31:41.837Z,75.50
2017-11-11T22:34:09.331Z,75.70
2017-11-11T22:36:37.157Z,75.50
2017-11-11T22:39:04.689Z,75.30
2017-11-11T22:41:32.944Z,75.50
2017-11-11T22:44:00.513Z,75.50
2017-11-11T22:46:28.779Z,75.20
2017-11-11T22:48:56.326Z,75.20
2017-11-11T22:51:23.803Z,75.20
2017-11-11T22:53:51.311Z,75.00
2017-11-11T22:56:18.854Z,75.20
2017-11-11T22:58:46.342Z,75.20
2017-11-11T23:01:13.862Z,75.40
2017-11-11T23:03:41.980Z,75.50
2017-11-11T23:06:09.484Z,75.60
2017-11-11T23:08:37.000Z,75.60
2017-11-11T23:11:04.671Z,75.80
2017-11-11T23:13:32.979Z,75.90
2017-11-11T23:16:01.254Z,76.30
2017-11-11T23:18:29.516Z,76.20
2017-11-11T23:20:57.031Z,76.00
2017-11-11T23:23:24.520Z,76.00
2017-11-11T23:25:52.039Z,75.90
2017-11-11T23:28:20.430Z,75.60
2017-11-11T23:30:47.915Z,75.70
2017-11-11T23:33:15.472Z,75.30
2017-11-11T23:35:42.988Z,75.40
2017-11-11T23:38:10.533Z,75.20
2017-11-11T23:40:38.018Z,74.60
2017-11-11T23:43:05.666Z,74.80
2017-11-11T23:45:33.177Z,74.60
2017-11-11T23:48:00.968Z,74.30
2017-11-11T23:50:29.260Z,74.10
2017-11-11T23:52:56.775Z,74.30
2017-11-11T23:55:24.344Z,74.20
2017-11-11T23:57:51.838Z,74.40
